sensor_id;sensor_type;location;lat;lon;timestamp;pressure;altitude;pressure_sealevel;temperature;humidity
9261;BME280;4667;42.726;23.252;2023-11-19T11:27:56;95344.47;;;5.36;51.03
9261;BME280;4667;42.726;23.252;2023-11-19T11:30:34;95341.72;;;5.81;49.76
9261;BME280;4667;42.726;23.252;2023-11-19T11:33:13;95256.50;;;5.92;47.99
9261;BME280;4667;42.726;23.252;2023-11-19T11:35:54;95346.47;;;7.19;46.34
9261;BME280;4667;42.726;23.252;2023-11-19T11:38:22;95209.88;;;7.56;44.07
9261;BME280;4667;42.726;23.252;2023-11-19T11:41:17;95320.78;;;9.09;42.03
9261;BME280;4667;42.726;23.252;2023-11-19T11:43:49;95202.16;;;9.27;39.69
9261;BME280;4667;42.726;23.252;2023-11-19T11:49:26;95187.44;;;10.48;36.56
9261;BME280;4667;42.726;23.252;2023-11-19T11:51:59;95300.88;;;11.78;35.45
9261;BME280;4667;42.726;23.252;2023-11-19T11:54:29;95262.16;;;11.93;35.60
9261;BME280;4667;42.726;23.252;2023-11-19T11:57:04;95284.66;;;12.48;33.95
9261;BME280;4667;42.726;23.252;2023-11-19T11:59:45;95272.81;;;12.56;34.34
9261;BME280;4667;42.726;23.252;2023-11-19T12:02:13;95239.03;;;12.94;33.33
9261;BME280;4667;42.726;23.252;2023-11-19T12:04:42;95084.34;;;12.08;32.15
9261;BME280;4667;42.726;23.252;2023-11-19T12:07:12;95263.97;;;13.03;31.90
9261;BME280;4667;42.726;23.252;2023-11-19T12:09:40;95152.63;;;11.79;32.79
9261;BME280;4667;42.726;23.252;2023-11-19T12:12:13;95176.63;;;12.15;32.80
9261;BME280;4667;42.726;23.252;2023-11-19T12:15:05;95281.06;;;12.65;32.96
9261;BME280;4667;42.726;23.252;2023-11-19T12:17:42;95124.88;;;12.29;32.66
9261;BME280;4667;42.726;23.252;2023-11-19T12:20:15;95067.94;;;11.49;33.22
9261;BME280;4667;42.726;23.252;2023-11-19T12:22:46;95278.50;;;12.33;33.46
9261;BME280;4667;42.726;23.252;2023-11-19T12:25:15;95278.38;;;12.60;33.46
9261;BME280;4667;42.726;23.252;2023-11-19T12:27:44;95241.63;;;12.11;33.96
9261;BME280;4667;42.726;23.252;2023-11-19T12:30:21;95186.44;;;12.19;33.49
9261;BME280;4667;42.726;23.252;2023-11-19T12:32:52;95004.66;;;11.11;33.70
9261;BME280;4667;42.726;23.252;2023-11-19T12:35:20;95264.50;;;13.05;32.77
9261;BME280;4667;42.726;23.252;2023-11-19T12:37:48;95268.69;;;12.81;33.30
9261;BME280;4667;42.726;23.252;2023-11-19T12:40:16;95262.41;;;13.17;32.70
9261;BME280;4667;42.726;23.252;2023-11-19T12:42:44;95252.16;;;12.53;33.30
9261;BME280;4667;42.726;23.252;2023-11-19T12:45:11;95126.44;;;11.73;33.37
9261;BME280;4667;42.726;23.252;2023-11-19T12:47:48;95250.28;;;12.48;33.55
9261;BME280;4667;42.726;23.252;2023-11-19T12:50:18;95224.50;;;11.81;34.44
9261;BME280;4667;42.726;23.252;2023-11-19T12:52:55;95211.63;;;11.20;36.17
9261;BME280;4667;42.726;23.252;2023-11-19T12:55:26;95181.53;;;10.35;36.93
9261;BME280;4667;42.726;23.252;2023-11-19T12:57:54;94907.03;;;8.36;38.15
9261;BME280;4667;42.726;23.252;2023-11-19T13:00:23;95116.91;;;9.89;37.46
9261;BME280;4667;42.726;23.252;2023-11-19T13:02:53;95168.06;;;10.86;36.56
9261;BME280;4667;42.726;23.252;2023-11-19T13:05:27;95113.72;;;10.31;37.41
9261;BME280;4667;42.726;23.252;2023-11-19T13:08:01;95238.44;;;11.34;36.98
9261;BME280;4667;42.726;23.252;2023-11-19T13:10:30;95104.56;;;10.38;36.54
9261;BME280;4667;42.726;23.252;2023-11-19T13:13:01;95074.31;;;10.19;36.38
9261;BME280;4667;42.726;23.252;2023-11-19T13:15:31;95175.47;;;10.35;36.74
9261;BME280;4667;42.726;23.252;2023-11-19T13:18:00;94838.50;;;8.04;37.19
9261;BME280;4667;42.726;23.252;2023-11-19T13:20:28;95160.03;;;8.94;39.80
9261;BME280;4667;42.726;23.252;2023-11-19T13:22:56;95071.19;;;8.62;40.01
9261;BME280;4667;42.726;23.252;2023-11-19T13:25:23;95219.28;;;9.63;39.84
9261;BME280;4667;42.726;23.252;2023-11-19T13:27:50;95220.41;;;9.51;40.29
9261;BME280;4667;42.726;23.252;2023-11-19T13:30:17;95216.66;;;9.30;40.68
9261;BME280;4667;42.726;23.252;2023-11-19T13:32:45;95236.41;;;8.99;41.44
9261;BME280;4667;42.726;23.252;2023-11-19T13:35:13;94905.69;;;6.86;41.87
9261;BME280;4667;42.726;23.252;2023-11-19T13:37:41;95169.22;;;8.46;42.68
9261;BME280;4667;42.726;23.252;2023-11-19T13:40:11;95142.81;;;8.29;42.34
9261;BME280;4667;42.726;23.252;2023-11-19T13:42:39;95044.34;;;7.46;42.52
9261;BME280;4667;42.726;23.252;2023-11-19T13:45:09;94861.81;;;6.17;42.35
9261;BME280;4667;42.726;23.252;2023-11-19T13:47:38;95169.94;;;8.18;43.56
9261;BME280;4667;42.726;23.252;2023-11-19T13:50:08;95027.03;;;7.21;42.56
9261;BME280;4667;42.726;23.252;2023-11-19T13:52:38;94943.22;;;6.63;42.61
9261;BME280;4667;42.726;23.252;2023-11-19T13:55:06;94986.84;;;6.81;43.09
9261;BME280;4667;42.726;23.252;2023-11-19T13:57:36;95055.22;;;7.26;43.54
9261;BME280;4667;42.726;23.252;2023-11-19T14:00:06;95248.03;;;8.34;42.68
9261;BME280;4667;42.726;23.252;2023-11-19T14:02:40;95224.69;;;7.97;43.83
9261;BME280;4667;42.726;23.252;2023-11-19T14:05:07;95223.72;;;7.63;44.04
9261;BME280;4667;42.726;23.252;2023-11-19T14:07:37;95131.84;;;7.16;43.96
9261;BME280;4667;42.726;23.252;2023-11-19T14:10:06;95060.00;;;6.59;43.90
9261;BME280;4667;42.726;23.252;2023-11-19T14:12:36;95250.63;;;7.70;44.24
9261;BME280;4667;42.726;23.252;2023-11-19T14:15:04;95187.16;;;7.03;45.08
9261;BME280;4667;42.726;23.252;2023-11-19T14:17:32;95129.59;;;6.55;45.29
9261;BME280;4667;42.726;23.252;2023-11-19T14:19:59;95169.34;;;6.51;46.54
9261;BME280;4667;42.726;23.252;2023-11-19T14:22:32;95151.16;;;6.27;46.17
9261;BME280;4667;42.726;23.252;2023-11-19T14:25:03;95131.56;;;5.99;47.31
9261;BME280;4667;42.726;23.252;2023-11-19T14:27:35;95249.47;;;6.59;47.41
9261;BME280;4667;42.726;23.252;2023-11-19T14:30:04;95269.25;;;6.73;47.62
9261;BME280;4667;42.726;23.252;2023-11-19T14:32:35;95252.25;;;6.46;48.29
9261;BME280;4667;42.726;23.252;2023-11-19T14:35:02;95257.81;;;6.68;47.98
9261;BME280;4667;42.726;23.252;2023-11-19T14:37:29;95212.50;;;6.01;49.34
9261;BME280;4667;42.726;23.252;2023-11-19T14:39:57;95269.06;;;6.38;49.28
9261;BME280;4667;42.726;23.252;2023-11-19T14:42:26;95264.56;;;6.27;49.61
9261;BME280;4667;42.726;23.252;2023-11-19T14:44:53;95239.25;;;6.03;49.69
9261;BME280;4667;42.726;23.252;2023-11-19T14:47:21;95272.94;;;5.99;50.38
9261;BME280;4667;42.726;23.252;2023-11-19T14:49:48;95143.88;;;5.18;50.24
9261;BME280;4667;42.726;23.252;2023-11-19T14:52:29;95190.28;;;5.48;50.75
9261;BME280;4667;42.726;23.252;2023-11-19T14:54:58;95268.34;;;6.13;51.13
9261;BME280;4667;42.726;23.252;2023-11-19T14:57:40;95253.69;;;5.87;51.80
9261;BME280;4667;42.726;23.252;2023-11-19T15:00:12;95094.34;;;4.80;51.07
9261;BME280;4667;42.726;23.252;2023-11-19T15:02:40;95005.34;;;4.07;52.31
9261;BME280;4667;42.726;23.252;2023-11-19T15:05:09;95202.19;;;5.19;52.54
9261;BME280;4667;42.726;23.252;2023-11-19T15:07:36;95235.59;;;5.17;53.41
9261;BME280;4667;42.726;23.252;2023-11-19T15:10:04;95302.25;;;5.58;53.50
9261;BME280;4667;42.726;23.252;2023-11-19T15:12:35;95258.13;;;5.18;52.98
9261;BME280;4667;42.726;23.252;2023-11-19T15:15:24;95062.25;;;3.91;53.18
9261;BME280;4667;42.726;23.252;2023-11-19T15:17:55;95128.63;;;4.02;53.38
9261;BME280;4667;42.726;23.252;2023-11-19T15:20:23;95294.09;;;5.22;53.62
9261;BME280;4667;42.726;23.252;2023-11-19T15:22:50;95297.38;;;5.11;54.69
9261;BME280;4667;42.726;23.252;2023-11-19T15:25:17;95213.41;;;4.69;54.65
9261;BME280;4667;42.726;23.252;2023-11-19T15:27:44;95166.00;;;4.34;54.69
9261;BME280;4667;42.726;23.252;2023-11-19T15:30:12;95168.88;;;4.26;55.01
9261;BME280;4667;42.726;23.252;2023-11-19T15:32:40;95189.31;;;4.29;54.51
9261;BME280;4667;42.726;23.252;2023-11-19T15:35:08;95214.28;;;4.57;54.33
9261;BME280;4667;42.726;23.252;2023-11-19T15:37:35;95011.47;;;3.11;55.20
9261;BME280;4667;42.726;23.252;2023-11-19T15:40:06;95171.25;;;3.89;55.78
9261;BME280;4667;42.726;23.252;2023-11-19T15:42:38;95282.56;;;4.67;55.74
9261;BME280;4667;42.726;23.252;2023-11-19T15:45:09;95114.41;;;3.47;55.89
9261;BME280;4667;42.726;23.252;2023-11-19T15:47:37;94805.41;;;1.38;55.75
9261;BME280;4667;42.726;23.252;2023-11-19T15:50:07;95232.16;;;4.15;55.73
9261;BME280;4667;42.726;23.252;2023-11-19T15:52:36;95245.22;;;4.08;55.98
9261;BME280;4667;42.726;23.252;2023-11-19T15:55:04;95088.81;;;3.24;55.95
9261;BME280;4667;42.726;23.252;2023-11-19T15:57:34;95245.03;;;4.10;56.15
9261;BME280;4667;42.726;23.252;2023-11-19T16:00:03;95276.69;;;4.27;56.13
9261;BME280;4667;42.726;23.252;2023-11-19T16:02:30;95208.59;;;3.77;56.09
9261;BME280;4667;42.726;23.252;2023-11-19T16:04:57;95057.81;;;2.76;55.99
9261;BME280;4667;42.726;23.252;2023-11-19T16:07:26;95200.56;;;3.85;55.33
9261;BME280;4667;42.726;23.252;2023-11-19T16:09:55;95053.00;;;2.93;55.21
9261;BME280;4667;42.726;23.252;2023-11-19T16:12:22;95133.25;;;3.42;54.96
9261;BME280;4667;42.726;23.252;2023-11-19T16:14:49;95230.97;;;4.11;55.93
9261;BME280;4667;42.726;23.252;2023-11-19T16:17:15;95279.06;;;4.35;55.87
9261;BME280;4667;42.726;23.252;2023-11-19T16:19:42;95122.44;;;3.45;55.30
9261;BME280;4667;42.726;23.252;2023-11-19T16:22:09;95027.13;;;2.91;54.26
9261;BME280;4667;42.726;23.252;2023-11-19T16:24:38;95272.38;;;4.52;53.59
9261;BME280;4667;42.726;23.252;2023-11-19T16:27:05;94903.72;;;2.27;52.57
9261;BME280;4667;42.726;23.252;2023-11-19T16:29:32;95256.72;;;4.52;52.80
9261;BME280;4667;42.726;23.252;2023-11-19T16:32:00;95244.84;;;4.56;52.44
